createdAt,value
2022-10-26T00:01:05.506Z,4.10
2022-10-26T00:03:34.847Z,4.17
2022-10-26T00:06:08.534Z,4.07
2022-10-26T00:08:37.062Z,3.63
2022-10-26T00:11:07.680Z,3.33
2022-10-26T00:13:37.054Z,3.23
2022-10-26T00:16:10.177Z,3.50
2022-10-26T00:18:38.744Z,3.23
2022-10-26T00:21:07.926Z,3.67
2022-10-26T00:23:36.186Z,3.30
2022-10-26T00:26:06.735Z,3.63
2022-10-26T00:28:34.927Z,3.50
2022-10-26T00:31:03.745Z,3.20
2022-10-26T00:33:32.427Z,3.27
2022-10-26T00:36:00.709Z,3.40
2022-10-26T00:38:28.888Z,3.33
2022-10-26T00:43:38.934Z,3.33
2022-10-26T00:46:11.792Z,3.80
2022-10-26T00:48:44.195Z,3.13
2022-10-26T00:51:16.707Z,3.83
2022-10-26T00:53:45.660Z,4.47
2022-10-26T00:56:13.927Z,3.27
2022-10-26T00:58:44.118Z,3.53
2022-10-26T01:01:12.547Z,3.50
2022-10-26T01:03:40.572Z,3.77
2022-10-26T01:06:10.166Z,3.47
2022-10-26T01:08:38.509Z,3.67
2022-10-26T01:11:07.175Z,3.20
2022-10-26T01:13:36.902Z,3.37
2022-10-26T01:16:23.694Z,2.83
2022-10-26T01:19:00.565Z,2.90
2022-10-26T01:21:52.851Z,2.80
2022-10-26T01:24:34.536Z,2.33
2022-10-26T01:27:21.527Z,2.87
2022-10-26T01:32:56.699Z,3.10
2022-10-26T01:35:32.328Z,2.70
2022-10-26T01:38:07.989Z,2.40
2022-10-26T01:40:39.176Z,2.20
2022-10-26T01:43:11.171Z,2.63
2022-10-26T01:45:43.349Z,2.27
2022-10-26T01:48:15.123Z,3.07
2022-10-26T01:50:47.665Z,2.70
2022-10-26T01:53:17.108Z,2.70
2022-10-26T01:55:49.282Z,2.83
2022-10-26T01:58:51.157Z,2.90
2022-10-26T02:01:37.525Z,2.40
2022-10-26T02:04:17.407Z,2.63
2022-10-26T02:06:54.175Z,2.20
2022-10-26T02:09:30.487Z,3.10
2022-10-26T02:11:59.761Z,2.90
2022-10-26T02:14:36.282Z,2.50
2022-10-26T02:17:09.191Z,2.70
2022-10-26T02:19:43.842Z,2.50
2022-10-26T02:22:17.956Z,3.20
2022-10-26T02:24:48.294Z,3.20
2022-10-26T02:27:21.610Z,2.67
2022-10-26T02:29:53.951Z,2.73
2022-10-26T02:32:25.721Z,3.07
2022-10-26T02:34:58.498Z,2.77
2022-10-26T02:37:29.938Z,2.63
2022-10-26T02:39:59.250Z,3.23
2022-10-26T02:42:28.972Z,2.97
2022-10-26T02:45:01.242Z,3.20
2022-10-26T02:47:29.517Z,3.17
2022-10-26T02:49:59.415Z,3.57
2022-10-26T02:52:34.243Z,3.03
2022-10-26T02:55:06.087Z,3.30
2022-10-26T02:57:39.705Z,4.07
2022-10-26T03:00:08.686Z,4.77
2022-10-26T03:02:36.958Z,3.90
2022-10-26T03:05:14.236Z,3.87
2022-10-26T03:07:42.987Z,3.80
2022-10-26T03:10:12.046Z,3.57
2022-10-26T03:12:40.212Z,3.70
2022-10-26T03:15:09.068Z,4.10
2022-10-26T03:17:37.183Z,3.73
2022-10-26T03:20:06.332Z,3.70
2022-10-26T03:22:35.595Z,3.90
2022-10-26T03:25:03.814Z,3.60
2022-10-26T03:27:31.709Z,4.00
2022-10-26T03:29:59.678Z,3.50
2022-10-26T03:32:27.625Z,3.80
2022-10-26T03:34:55.565Z,3.37
2022-10-26T03:37:23.632Z,3.43
2022-10-26T03:39:52.950Z,4.07
2022-10-26T03:42:21.015Z,3.53
2022-10-26T03:44:48.954Z,3.30
2022-10-26T03:47:17.132Z,3.03
2022-10-26T03:49:45.376Z,3.47
2022-10-26T03:52:13.263Z,3.53
2022-10-26T03:54:41.188Z,3.00
2022-10-26T03:57:10.509Z,3.30
2022-10-26T03:59:38.611Z,2.53
2022-10-26T04:02:06.621Z,2.47
2022-10-26T04:04:34.625Z,5.77
2022-10-26T04:07:02.567Z,4.63
2022-10-26T04:09:30.449Z,3.97
2022-10-26T04:11:58.319Z,4.67
2022-10-26T04:14:27.573Z,8.20
2022-10-26T04:16:55.546Z,6.93
2022-10-26T04:19:23.528Z,20.43
2022-10-26T04:21:52.220Z,16.30
2022-10-26T04:24:20.203Z,5.77
2022-10-26T04:26:48.173Z,3.37
2022-10-26T04:29:16.253Z,2.30
2022-10-26T04:31:46.215Z,2.80
2022-10-26T04:34:14.143Z,2.80
2022-10-26T04:36:42.111Z,2.47
2022-10-26T04:39:10.020Z,2.20
2022-10-26T04:41:37.909Z,2.20
2022-10-26T04:44:05.944Z,2.03
2022-10-26T04:46:33.904Z,2.03
2022-10-26T04:49:03.253Z,2.57
2022-10-26T04:51:31.139Z,2.33
2022-10-26T04:53:59.270Z,2.47
2022-10-26T04:56:27.261Z,2.27
2022-10-26T04:58:55.609Z,2.80
2022-10-26T05:01:23.881Z,2.50
2022-10-26T05:03:52.316Z,2.40
2022-10-26T05:06:22.108Z,2.30
2022-10-26T05:08:50.698Z,2.37
2022-10-26T05:11:18.590Z,2.30
2022-10-26T05:13:48.226Z,2.60
2022-10-26T05:16:16.977Z,2.70
2022-10-26T05:18:44.942Z,2.97
2022-10-26T05:21:19.212Z,2.80
2022-10-26T05:23:53.888Z,2.73
2022-10-26T05:26:21.981Z,2.40
2022-10-26T05:28:49.975Z,2.77
2022-10-26T05:31:18.040Z,2.40
2022-10-26T05:33:49.271Z,2.30
2022-10-26T05:36:17.587Z,2.70
2022-10-26T05:38:45.859Z,2.40
2022-10-26T05:41:15.253Z,3.00
2022-10-26T05:43:43.233Z,2.37
2022-10-26T05:46:11.127Z,2.13
2022-10-26T05:48:39.051Z,2.70
2022-10-26T05:51:07.362Z,2.63
2022-10-26T05:53:35.210Z,2.00
2022-10-26T05:56:06.050Z,2.70
2022-10-26T05:58:39.311Z,2.50
2022-10-26T06:01:16.758Z,2.90
2022-10-26T06:04:02.263Z,2.33
2022-10-26T06:06:35.410Z,2.63
2022-10-26T06:09:03.958Z,2.70
2022-10-26T06:11:32.502Z,2.67
2022-10-26T06:14:03.459Z,2.60
2022-10-26T06:16:39.420Z,2.40
2022-10-26T06:19:17.717Z,2.13
2022-10-26T06:22:02.746Z,2.00
2022-10-26T06:24:38.979Z,2.53
2022-10-26T06:27:19.697Z,2.20
2022-10-26T06:29:58.437Z,2.37
2022-10-26T06:32:26.584Z,2.40
2022-10-26T06:35:06.959Z,2.10
2022-10-26T06:37:37.205Z,2.30
2022-10-26T06:40:07.423Z,2.40
2022-10-26T06:42:35.816Z,2.37
2022-10-26T06:45:06.424Z,2.30
2022-10-26T06:47:41.737Z,2.30
2022-10-26T06:50:23.101Z,2.03
2022-10-26T06:53:03.859Z,2.00
2022-10-26T06:55:40.528Z,2.70
2022-10-26T06:58:11.490Z,2.13
2022-10-26T07:00:41.702Z,2.70
2022-10-26T07:03:09.608Z,2.23
2022-10-26T07:05:37.587Z,2.50
2022-10-26T07:08:06.462Z,2.80
2022-10-26T07:10:36.288Z,2.27
2022-10-26T07:13:04.154Z,2.57
2022-10-26T07:15:32.111Z,2.80
2022-10-26T07:18:01.762Z,2.40
2022-10-26T07:20:29.760Z,2.30
2022-10-26T07:22:58.502Z,2.53
2022-10-26T07:25:27.230Z,2.63
2022-10-26T07:27:59.056Z,2.43
2022-10-26T07:30:27.393Z,2.73
2022-10-26T07:33:01.445Z,2.30
2022-10-26T07:35:30.116Z,2.60
2022-10-26T07:37:59.026Z,2.53
2022-10-26T07:40:28.108Z,2.80
2022-10-26T07:42:58.773Z,3.47
2022-10-26T07:45:27.388Z,3.17
2022-10-26T07:47:55.385Z,2.70
2022-10-26T07:50:25.822Z,3.23
2022-10-26T07:52:54.435Z,2.97
2022-10-26T07:55:22.508Z,3.30
2022-10-26T07:57:53.795Z,2.80
2022-10-26T08:00:23.324Z,2.90
2022-10-26T08:02:51.383Z,2.67
2022-10-26T08:05:19.455Z,3.10
2022-10-26T08:07:49.195Z,2.37
2022-10-26T08:10:17.890Z,2.90
2022-10-26T08:12:46.043Z,2.67
2022-10-26T08:15:14.000Z,2.33
2022-10-26T08:17:41.978Z,2.77
2022-10-26T08:20:11.034Z,2.80
2022-10-26T08:22:38.949Z,2.67
2022-10-26T08:25:08.831Z,3.00
2022-10-26T08:27:36.796Z,2.50
2022-10-26T08:30:05.196Z,2.87
2022-10-26T08:32:33.068Z,3.10
2022-10-26T08:35:00.991Z,2.77
2022-10-26T08:37:29.209Z,3.00
2022-10-26T08:40:00.621Z,2.60
2022-10-26T08:42:37.607Z,2.30
2022-10-26T08:45:11.775Z,2.40
2022-10-26T08:47:48.630Z,2.60
2022-10-26T08:50:25.935Z,2.60
2022-10-26T08:53:02.236Z,2.10
2022-10-26T08:55:36.025Z,2.67
2022-10-26T08:58:11.966Z,2.70
2022-10-26T09:00:41.721Z,2.70
2022-10-26T09:03:15.769Z,1.87
2022-10-26T09:05:56.423Z,2.00
2022-10-26T09:08:36.805Z,2.87
2022-10-26T09:11:14.469Z,2.20
2022-10-26T09:13:56.404Z,2.60
2022-10-26T09:16:36.571Z,2.43
2022-10-26T09:19:29.506Z,2.33
2022-10-26T09:22:05.261Z,2.40
2022-10-26T09:24:34.815Z,2.80
2022-10-26T09:27:09.089Z,1.90
2022-10-26T09:29:42.446Z,2.10
2022-10-26T09:32:18.001Z,2.50
2022-10-26T09:34:50.958Z,2.20
2022-10-26T09:37:22.365Z,2.03
2022-10-26T09:39:59.530Z,2.20
2022-10-26T09:42:35.113Z,2.23
2022-10-26T09:45:13.841Z,2.23
2022-10-26T09:47:46.326Z,2.10
2022-10-26T09:50:23.696Z,2.40
2022-10-26T09:52:52.548Z,2.00
2022-10-26T09:55:22.597Z,2.50
2022-10-26T09:57:55.074Z,2.07
2022-10-26T10:00:26.710Z,2.00
2022-10-26T10:02:57.046Z,2.90
2022-10-26T10:05:49.866Z,2.07
2022-10-26T10:08:19.752Z,2.10
2022-10-26T10:10:59.534Z,2.17
2022-10-26T10:13:30.339Z,2.23
2022-10-26T10:16:06.560Z,2.00
2022-10-26T10:18:36.258Z,2.13
2022-10-26T10:21:05.839Z,2.17
2022-10-26T10:23:36.228Z,2.50
2022-10-26T10:26:07.139Z,2.40
2022-10-26T10:28:35.995Z,2.17
2022-10-26T10:31:07.118Z,1.90
2022-10-26T10:33:37.644Z,2.20
2022-10-26T10:36:09.396Z,1.97
2022-10-26T10:38:42.626Z,1.80
2022-10-26T10:41:23.236Z,2.00
2022-10-26T10:43:54.605Z,1.80
2022-10-26T10:46:27.367Z,2.00
2022-10-26T10:49:03.709Z,2.20
2022-10-26T10:51:37.317Z,2.13
2022-10-26T10:54:07.051Z,2.13
2022-10-26T10:56:39.425Z,1.53
2022-10-26T10:59:27.253Z,1.53
2022-10-26T11:02:13.559Z,1.60
2022-10-26T11:05:00.151Z,2.00
2022-10-26T11:07:31.341Z,1.53
2022-10-26T11:10:03.808Z,1.90
2022-10-26T11:15:14.369Z,1.73
2022-10-26T11:17:54.194Z,2.67
2022-10-26T11:20:25.189Z,1.50
2022-10-26T11:25:45.442Z,1.60
2022-10-26T11:28:18.766Z,1.80
2022-10-26T11:30:52.111Z,1.70
2022-10-26T11:33:28.063Z,1.23
2022-10-26T11:36:01.883Z,1.30
2022-10-26T11:38:45.983Z,1.80
2022-10-26T11:41:26.463Z,1.50
2022-10-26T11:44:02.694Z,1.60
2022-10-26T11:46:37.165Z,1.50
2022-10-26T11:49:14.375Z,1.50
2022-10-26T11:51:47.858Z,1.60
2022-10-26T11:56:56.999Z,1.57
2022-10-26T11:59:32.242Z,1.67
2022-10-26T12:02:05.746Z,1.73
2022-10-26T12:04:39.100Z,1.90
2022-10-26T12:07:14.690Z,2.43
2022-10-26T12:09:45.105Z,1.13
2022-10-26T12:12:24.051Z,2.20
2022-10-26T12:15:00.800Z,2.40
2022-10-26T12:17:36.284Z,1.57
2022-10-26T12:20:24.566Z,1.73
2022-10-26T12:22:52.808Z,1.83
2022-10-26T12:25:23.132Z,1.73
2022-10-26T12:27:56.146Z,1.60
2022-10-26T12:30:28.019Z,1.40
2022-10-26T12:32:57.853Z,1.70
2022-10-26T12:35:48.132Z,1.63
2022-10-26T12:38:57.779Z,1.80
2022-10-26T12:41:27.374Z,1.80
2022-10-26T12:44:00.161Z,1.57
2022-10-26T12:46:45.420Z,1.70
2022-10-26T12:49:43.178Z,1.50
2022-10-26T12:52:32.893Z,1.70
2022-10-26T12:55:30.388Z,1.60
2022-10-26T12:58:11.258Z,1.40
2022-10-26T13:00:48.467Z,1.87
2022-10-26T13:03:30.662Z,1.90
2022-10-26T13:06:12.536Z,1.83
2022-10-26T13:08:43.604Z,1.53
2022-10-26T13:11:19.693Z,1.80
2022-10-26T13:13:55.363Z,1.70
2022-10-26T13:16:27.917Z,2.07
2022-10-26T13:18:57.430Z,1.33
2022-10-26T13:21:27.094Z,1.60
2022-10-26T13:24:05.598Z,1.87
2022-10-26T13:26:54.292Z,1.90
2022-10-26T13:29:31.115Z,2.00
2022-10-26T13:32:00.432Z,1.43
2022-10-26T13:34:32.037Z,1.40
2022-10-26T13:37:08.039Z,1.60
2022-10-26T13:39:42.459Z,1.53
2022-10-26T13:42:16.855Z,1.50
2022-10-26T13:44:53.667Z,1.80
2022-10-26T13:47:28.835Z,1.73
2022-10-26T13:50:03.240Z,1.70
2022-10-26T13:52:36.843Z,1.40
2022-10-26T13:55:11.067Z,1.80
2022-10-26T13:57:43.265Z,2.00
2022-10-26T14:00:18.572Z,1.93
2022-10-26T14:02:46.647Z,1.40
2022-10-26T14:05:18.272Z,1.60
2022-10-26T14:07:52.583Z,1.70
2022-10-26T14:10:29.142Z,2.13
2022-10-26T14:12:58.261Z,1.43
2022-10-26T14:15:30.252Z,1.53
2022-10-26T14:18:01.067Z,1.50
2022-10-26T14:20:30.988Z,1.33
2022-10-26T14:22:59.083Z,1.50
2022-10-26T14:25:42.453Z,1.57
2022-10-26T14:28:27.522Z,1.60
2022-10-26T14:30:57.195Z,1.80
2022-10-26T14:33:29.510Z,1.50
2022-10-26T14:35:58.128Z,1.70
2022-10-26T14:38:30.137Z,1.50
2022-10-26T14:40:59.816Z,2.83
2022-10-26T14:43:28.716Z,3.10
2022-10-26T14:45:57.314Z,1.83
2022-10-26T14:48:30.298Z,1.60
2022-10-26T14:51:02.963Z,1.53
2022-10-26T14:53:36.569Z,1.77
2022-10-26T14:56:17.905Z,1.40
2022-10-26T14:58:46.361Z,1.53
2022-10-26T15:01:26.864Z,1.63
2022-10-26T15:03:58.214Z,2.00
2022-10-26T15:06:32.437Z,1.80
2022-10-26T15:09:02.100Z,3.80
2022-10-26T15:11:33.599Z,2.80
2022-10-26T15:14:02.384Z,1.77
2022-10-26T15:16:40.963Z,1.77
2022-10-26T15:19:11.404Z,1.90
2022-10-26T15:21:47.019Z,1.60
2022-10-26T15:24:33.147Z,1.90
2022-10-26T15:27:13.148Z,1.60
2022-10-26T15:29:43.747Z,2.00
2022-10-26T15:32:31.210Z,1.83
2022-10-26T15:35:32.704Z,1.90
2022-10-26T15:38:01.642Z,2.10
2022-10-26T15:40:32.212Z,2.03
2022-10-26T15:43:02.158Z,2.20
2022-10-26T15:45:35.134Z,1.63
2022-10-26T15:48:19.412Z,1.73
2022-10-26T15:50:47.525Z,2.00
2022-10-26T15:53:20.533Z,1.50
2022-10-26T15:55:48.923Z,2.00
2022-10-26T15:58:18.526Z,2.10
2022-10-26T16:00:46.584Z,2.13
2022-10-26T16:03:23.155Z,1.90
2022-10-26T16:05:57.684Z,1.97
2022-10-26T16:08:27.766Z,1.87
2022-10-26T16:10:56.018Z,2.30
2022-10-26T16:13:26.691Z,3.13
2022-10-26T16:15:54.674Z,16.27
2022-10-26T16:18:22.667Z,22.60
2022-10-26T16:20:50.563Z,18.83
2022-10-26T16:23:18.715Z,13.73
2022-10-26T16:25:47.816Z,10.33
2022-10-26T16:28:17.645Z,5.90
2022-10-26T16:30:46.935Z,4.90
2022-10-26T16:33:15.037Z,4.67
2022-10-26T16:35:43.076Z,3.60
2022-10-26T16:38:11.162Z,3.87
2022-10-26T16:40:42.598Z,3.33
2022-10-26T16:43:10.849Z,3.00
2022-10-26T16:45:40.940Z,2.83
2022-10-26T16:48:15.054Z,2.93
2022-10-26T16:50:42.955Z,2.83
2022-10-26T16:53:10.970Z,2.77
2022-10-26T16:55:39.256Z,3.63
2022-10-26T16:58:07.211Z,4.17
2022-10-26T17:00:36.579Z,3.90
2022-10-26T17:03:05.272Z,4.77
2022-10-26T17:05:34.515Z,12.60
2022-10-26T17:08:02.450Z,14.67
2022-10-26T17:10:30.589Z,6.47
2022-10-26T17:12:58.476Z,6.50
2022-10-26T17:15:29.143Z,6.27
2022-10-26T17:17:57.504Z,6.63
2022-10-26T17:20:26.076Z,6.27
2022-10-26T17:22:58.219Z,6.13
2022-10-26T17:25:26.413Z,5.70
2022-10-26T17:27:54.330Z,4.93
2022-10-26T17:30:23.041Z,5.13
2022-10-26T17:32:51.966Z,6.03
2022-10-26T17:35:20.160Z,6.00
2022-10-26T17:37:48.356Z,5.07
2022-10-26T17:40:18.068Z,5.50
2022-10-26T17:42:46.164Z,4.90
2022-10-26T17:45:14.099Z,4.47
2022-10-26T17:47:42.049Z,4.73
2022-10-26T17:50:10.475Z,4.77
2022-10-26T17:52:38.429Z,5.40
2022-10-26T17:55:07.131Z,4.17
2022-10-26T17:57:36.412Z,5.30
2022-10-26T18:00:06.411Z,3.40
2022-10-26T18:02:40.476Z,5.23
2022-10-26T18:05:09.837Z,3.70
2022-10-26T18:07:39.200Z,3.87
2022-10-26T18:10:26.230Z,3.07
2022-10-26T18:12:59.573Z,4.73
2022-10-26T18:15:27.925Z,12.20
2022-10-26T18:17:59.835Z,18.70
2022-10-26T18:20:28.758Z,14.67
2022-10-26T18:22:57.095Z,7.33
2022-10-26T18:25:25.212Z,7.00
2022-10-26T18:27:53.243Z,8.07
2022-10-26T18:30:22.896Z,6.83
2022-10-26T18:32:52.048Z,5.73
2022-10-26T18:35:20.494Z,14.57
2022-10-26T18:37:48.617Z,14.57
2022-10-26T18:40:17.157Z,11.47
2022-10-26T18:42:45.050Z,6.97
2022-10-26T18:45:13.134Z,6.47
2022-10-26T18:47:42.618Z,5.00
2022-10-26T18:50:11.139Z,5.53
2022-10-26T18:52:41.204Z,4.43
2022-10-26T18:55:10.701Z,4.23
2022-10-26T18:57:38.927Z,4.90
2022-10-26T19:00:09.378Z,5.23
2022-10-26T19:02:37.486Z,5.47
2022-10-26T19:05:08.935Z,5.67
2022-10-26T19:07:39.857Z,6.80
2022-10-26T19:10:10.997Z,6.27
2022-10-26T19:12:39.209Z,5.70
2022-10-26T19:15:08.574Z,5.20
2022-10-26T19:17:36.680Z,6.63
2022-10-26T19:20:07.336Z,6.40
2022-10-26T19:22:35.377Z,5.40
2022-10-26T19:25:03.850Z,6.20
2022-10-26T19:27:31.825Z,7.23
2022-10-26T19:30:00.117Z,22.43
2022-10-26T19:32:28.769Z,12.60
2022-10-26T19:34:56.725Z,7.40
2022-10-26T19:37:28.226Z,6.87
2022-10-26T19:39:56.701Z,7.50
2022-10-26T19:42:24.875Z,6.83
2022-10-26T19:44:52.950Z,7.57
2022-10-26T19:47:20.891Z,6.60
2022-10-26T19:49:49.292Z,7.20
2022-10-26T19:54:51.578Z,7.30
2022-10-26T19:57:19.518Z,6.50
2022-10-26T19:59:47.454Z,6.33
2022-10-26T20:02:15.655Z,6.13
2022-10-26T20:04:45.295Z,6.23
2022-10-26T20:07:13.345Z,5.70
2022-10-26T20:09:41.287Z,5.33
2022-10-26T20:12:12.687Z,4.60
2022-10-26T20:14:40.789Z,5.53
2022-10-26T20:17:08.705Z,6.27
2022-10-26T20:19:36.649Z,7.30
2022-10-26T20:22:04.528Z,5.87
2022-10-26T20:24:32.486Z,6.10
2022-10-26T20:27:00.380Z,6.27
2022-10-26T20:29:29.568Z,5.80
2022-10-26T20:31:59.243Z,6.13
2022-10-26T20:37:01.549Z,4.93
2022-10-26T20:39:30.492Z,5.47
2022-10-26T20:41:59.618Z,5.57
2022-10-26T20:44:34.425Z,5.50
2022-10-26T20:47:02.694Z,6.60
2022-10-26T20:49:31.203Z,6.10
2022-10-26T20:52:21.806Z,5.93
2022-10-26T20:54:56.467Z,4.97
2022-10-26T20:57:32.206Z,5.30
2022-10-26T21:00:07.461Z,6.83
2022-10-26T21:02:35.661Z,6.77
2022-10-26T21:05:03.580Z,6.00
2022-10-26T21:07:31.603Z,6.73
2022-10-26T21:09:59.514Z,7.10
2022-10-26T21:12:27.489Z,7.20
2022-10-26T21:14:55.881Z,6.77
2022-10-26T21:17:25.495Z,8.43
2022-10-26T21:19:53.402Z,7.63
2022-10-26T21:22:21.464Z,8.30
2022-10-26T21:24:49.389Z,7.07
2022-10-26T21:27:17.639Z,7.60
2022-10-26T21:29:45.635Z,6.93
2022-10-26T21:32:13.673Z,6.90
2022-10-26T21:34:42.885Z,6.57
2022-10-26T21:37:10.872Z,6.80
2022-10-26T21:39:38.720Z,5.80
2022-10-26T21:42:06.747Z,5.20
2022-10-26T21:44:42.066Z,5.57
2022-10-26T21:47:10.776Z,5.10
2022-10-26T21:49:38.844Z,5.13
2022-10-26T21:52:08.658Z,5.10
2022-10-26T21:54:36.573Z,5.80
2022-10-26T21:57:04.568Z,4.90
2022-10-26T21:59:32.483Z,4.80
2022-10-26T22:02:00.888Z,5.10
2022-10-26T22:04:28.930Z,5.07
2022-10-26T22:06:56.831Z,4.20
2022-10-26T22:09:26.263Z,5.20
2022-10-26T22:11:54.272Z,4.63
2022-10-26T22:14:22.517Z,4.50
2022-10-26T22:16:50.710Z,5.07
2022-10-26T22:19:18.974Z,5.77
2022-10-26T22:21:47.013Z,5.63
2022-10-26T22:24:14.992Z,5.50
2022-10-26T22:26:44.285Z,5.70
2022-10-26T22:29:12.251Z,5.80
2022-10-26T22:31:41.530Z,9.33
2022-10-26T22:34:14.388Z,7.97
2022-10-26T22:36:42.755Z,6.20
2022-10-26T22:39:10.794Z,6.07
2022-10-26T22:41:38.678Z,12.67
2022-10-26T22:44:08.197Z,8.47
2022-10-26T22:46:36.130Z,8.00
2022-10-26T22:49:04.582Z,7.43
2022-10-26T22:51:34.162Z,5.70
2022-10-26T22:54:03.586Z,5.03
2022-10-26T22:56:33.087Z,5.07
2022-10-26T22:59:01.396Z,9.00
2022-10-26T23:01:32.873Z,7.50
2022-10-26T23:04:01.498Z,10.00
2022-10-26T23:06:31.558Z,7.97
2022-10-26T23:08:59.996Z,6.20
2022-10-26T23:11:29.385Z,5.87
2022-10-26T23:13:59.501Z,5.77
2022-10-26T23:16:28.426Z,5.77
2022-10-26T23:18:58.723Z,5.17
2022-10-26T23:24:00.838Z,5.13
2022-10-26T23:26:28.830Z,5.30
2022-10-26T23:28:57.014Z,4.60
2022-10-26T23:31:26.770Z,5.00
2022-10-26T23:33:56.541Z,4.10
2022-10-26T23:36:26.404Z,4.60
2022-10-26T23:38:54.369Z,4.37
2022-10-26T23:41:23.446Z,4.47
2022-10-26T23:43:51.388Z,3.90
2022-10-26T23:46:19.424Z,3.73
2022-10-26T23:48:47.548Z,3.50
2022-10-26T23:51:15.469Z,3.90
2022-10-26T23:53:44.819Z,3.83
2022-10-26T23:56:12.770Z,3.50
2022-10-26T23:58:40.741Z,3.53
